メインページ
METAR-TAF:

METAR-TAF

空港 :

ニューアーク・リバティー国際空港

ニューアーク, ニュージャージー州, アメリカ合衆国

緯度: 40-40-57N, 経度: 074-10-10W, 海抜: 5m

現時点の気象観測

当レポートは18分前の11:51(UTC)に作成
西/北西の風 13kt
気温 -2°C
湿度 33%
気圧 1017 hPa
視程: 16.1km
高度6000ftの千切れ雲あり

METAR: KEWR 231151Z 30013KT 10SM BKN060 M02/M16 A3002 RMK AO2 SLP165 T10221161 10017 21022 53019

時間: 07:09 (12:09 UTC)

予報

当レポートは29分前の11:40(UTC)に作成
予報は23日の 12時(UTC)から 24日の 18時(UTC)まで有効
西/北西の風 14kt、最大24ktの突風を伴う
視程: 10km
高度4000ftの雲は散在している
高度7000ftの千切れ雲あり
23日の 1400時(UTC)から
西/北西の風 17kt、最大28ktの突風を伴う
視程: 10km
高度4000ftの雲は散在している
高度7000ftの雲は散在している
23日の 1600時(UTC)から
西/北西の風 21kt、最大30ktの突風を伴う
視程: 10km
高度4000ftの雲は散在している
高度7000ftの雲は散在している
23日の 1800時(UTC)から
北西の風 23kt、最大32ktの突風を伴う
視程: 10km
高度2500ftの雲はほとんどない
高度4000ftの雲は散在している
24日の 0000時(UTC)から
西/北西の風 19kt、最大29ktの突風を伴う
視程: 10km
高度4000ftの雲はほとんどない
24日の 0500時(UTC)から
西/北西の風 14kt、最大24ktの突風を伴う
視程: 10km
高度4000ftの雲はほとんどない

TAF: KEWR 231140Z 2312/2418 29014G24KT P6SM SCT040 BKN070 FM231400 29017G28KT P6SM SCT040 SCT070 FM231600 30021G30KT P6SM SCT040 SCT070 FM231800 31023G32KT P6SM FEW025 SCT040 FM240000 30019G29KT P6SM FEW040 FM240500 30014G24KT P6SM FEW040

4,000以上の空港の気象観測と天気予報(METAR報とTAF報)

利用可能な観測所は地図上に黄色い丸と赤い丸で示す。

丸の上にカーソルを重ねると観測所名を参照できる。

次にクリックすると気象観測と天気予報を参照できる。

マップの切り替え:黒色「×」印の緑ボタンをクリックして拡大、「-」印の緑ボタンをクリックして縮小、緑色の三角印をクリックして隣りの地図に切り替え


METAR-TAF: